sensor_id;sensor_type;location;lat;lon;timestamp;temperature;humidity
19892;DHT22;10108;50.142;8.724;2024-03-23T00:52:08;10.40;99.90
19892;DHT22;10108;50.142;8.724;2024-03-23T00:54:35;10.50;99.90
19892;DHT22;10108;50.142;8.724;2024-03-23T00:57:01;10.50;99.90
19892;DHT22;10108;50.142;8.724;2024-03-23T00:59:27;10.60;99.90
19892;DHT22;10108;50.142;8.724;2024-03-23T01:01:55;10.60;99.90
19892;DHT22;10108;50.142;8.724;2024-03-23T01:04:21;10.60;99.90
19892;DHT22;10108;50.142;8.724;2024-03-23T01:06:48;10.70;99.90
19892;DHT22;10108;50.142;8.724;2024-03-23T01:09:14;10.70;99.90
19892;DHT22;10108;50.142;8.724;2024-03-23T01:11:40;10.70;99.90
19892;DHT22;10108;50.142;8.724;2024-03-23T01:14:07;10.70;99.90
19892;DHT22;10108;50.142;8.724;2024-03-23T01:16:33;10.70;99.90
19892;DHT22;10108;50.142;8.724;2024-03-23T01:18:59;10.70;99.90
19892;DHT22;10108;50.142;8.724;2024-03-23T01:21:26;10.80;99.90
19892;DHT22;10108;50.142;8.724;2024-03-23T01:23:52;10.80;99.90
19892;DHT22;10108;50.142;8.724;2024-03-23T01:26:18;10.80;99.90
19892;DHT22;10108;50.142;8.724;2024-03-23T01:28:45;10.80;99.90
19892;DHT22;10108;50.142;8.724;2024-03-23T01:31:11;10.80;99.90
19892;DHT22;10108;50.142;8.724;2024-03-23T01:33:37;10.80;99.90
19892;DHT22;10108;50.142;8.724;2024-03-23T01:36:04;10.80;99.90
19892;DHT22;10108;50.142;8.724;2024-03-23T01:38:30;10.80;99.90
19892;DHT22;10108;50.142;8.724;2024-03-23T01:40:57;10.80;99.90
19892;DHT22;10108;50.142;8.724;2024-03-23T01:43:23;10.80;99.90
19892;DHT22;10108;50.142;8.724;2024-03-23T01:45:51;10.80;99.90
19892;DHT22;10108;50.142;8.724;2024-03-23T01:48:20;10.80;99.90
19892;DHT22;10108;50.142;8.724;2024-03-23T01:50:47;10.80;99.90
19892;DHT22;10108;50.142;8.724;2024-03-23T01:53:14;10.70;99.90
19892;DHT22;10108;50.142;8.724;2024-03-23T01:55:43;10.70;99.90
19892;DHT22;10108;50.142;8.724;2024-03-23T01:58:10;10.70;99.90
19892;DHT22;10108;50.142;8.724;2024-03-23T02:00:39;10.70;99.90
19892;DHT22;10108;50.142;8.724;2024-03-23T02:03:25;10.70;99.90
19892;DHT22;10108;50.142;8.724;2024-03-23T02:05:53;10.70;99.90
19892;DHT22;10108;50.142;8.724;2024-03-23T02:08:22;10.60;99.90
19892;DHT22;10108;50.142;8.724;2024-03-23T02:10:49;10.60;99.90
19892;DHT22;10108;50.142;8.724;2024-03-23T02:13:18;10.60;99.90
19892;DHT22;10108;50.142;8.724;2024-03-23T02:15:45;10.60;99.90
19892;DHT22;10108;50.142;8.724;2024-03-23T02:18:11;10.60;99.90
19892;DHT22;10108;50.142;8.724;2024-03-23T02:20:38;10.60;99.90
19892;DHT22;10108;50.142;8.724;2024-03-23T02:23:05;10.60;99.90
19892;DHT22;10108;50.142;8.724;2024-03-23T02:25:34;10.60;99.90
19892;DHT22;10108;50.142;8.724;2024-03-23T02:28:00;10.60;99.90
19892;DHT22;10108;50.142;8.724;2024-03-23T02:30:27;10.60;99.90
19892;DHT22;10108;50.142;8.724;2024-03-23T02:32:53;10.60;99.90
19892;DHT22;10108;50.142;8.724;2024-03-23T02:35:19;10.60;99.90
19892;DHT22;10108;50.142;8.724;2024-03-23T02:37:47;10.60;99.90
19892;DHT22;10108;50.142;8.724;2024-03-23T02:40:15;10.60;99.90
19892;DHT22;10108;50.142;8.724;2024-03-23T02:42:42;10.70;99.90
19892;DHT22;10108;50.142;8.724;2024-03-23T02:45:08;10.60;99.90
19892;DHT22;10108;50.142;8.724;2024-03-23T02:47:35;10.60;99.90
19892;DHT22;10108;50.142;8.724;2024-03-23T02:50:01;10.60;99.90
19892;DHT22;10108;50.142;8.724;2024-03-23T02:52:28;10.60;99.90
19892;DHT22;10108;50.142;8.724;2024-03-23T02:54:54;10.60;99.90
19892;DHT22;10108;50.142;8.724;2024-03-23T02:57:20;10.60;99.90
19892;DHT22;10108;50.142;8.724;2024-03-23T02:59:47;10.50;99.90
19892;DHT22;10108;50.142;8.724;2024-03-23T03:02:16;10.60;99.90
19892;DHT22;10108;50.142;8.724;2024-03-23T03:04:42;10.60;99.90
19892;DHT22;10108;50.142;8.724;2024-03-23T03:07:08;10.50;99.90
19892;DHT22;10108;50.142;8.724;2024-03-23T03:09:35;10.60;99.90
19892;DHT22;10108;50.142;8.724;2024-03-23T03:12:01;10.50;99.90
19892;DHT22;10108;50.142;8.724;2024-03-23T03:14:29;10.50;99.90
19892;DHT22;10108;50.142;8.724;2024-03-23T03:16:55;10.50;99.90
19892;DHT22;10108;50.142;8.724;2024-03-23T03:19:22;10.50;99.90
19892;DHT22;10108;50.142;8.724;2024-03-23T03:21:48;10.60;99.90
19892;DHT22;10108;50.142;8.724;2024-03-23T03:24:16;10.60;99.90
19892;DHT22;10108;50.142;8.724;2024-03-23T03:26:43;10.60;99.90
19892;DHT22;10108;50.142;8.724;2024-03-23T03:29:09;10.60;99.90
19892;DHT22;10108;50.142;8.724;2024-03-23T03:31:36;10.70;99.90
19892;DHT22;10108;50.142;8.724;2024-03-23T03:34:02;10.70;99.90
19892;DHT22;10108;50.142;8.724;2024-03-23T03:36:29;10.70;99.90
19892;DHT22;10108;50.142;8.724;2024-03-23T03:38:55;10.70;99.90
19892;DHT22;10108;50.142;8.724;2024-03-23T03:41:21;10.70;99.90
19892;DHT22;10108;50.142;8.724;2024-03-23T03:43:47;10.70;99.90
19892;DHT22;10108;50.142;8.724;2024-03-23T03:46:14;10.70;99.90
19892;DHT22;10108;50.142;8.724;2024-03-23T03:48:40;10.60;99.90
19892;DHT22;10108;50.142;8.724;2024-03-23T03:51:06;10.60;99.90
19892;DHT22;10108;50.142;8.724;2024-03-23T03:53:33;10.60;99.90
19892;DHT22;10108;50.142;8.724;2024-03-23T03:56:02;10.60;99.90
19892;DHT22;10108;50.142;8.724;2024-03-23T03:58:29;10.50;99.90
19892;DHT22;10108;50.142;8.724;2024-03-23T04:00:55;10.50;99.90
19892;DHT22;10108;50.142;8.724;2024-03-23T04:03:21;10.50;99.90
19892;DHT22;10108;50.142;8.724;2024-03-23T04:05:54;10.50;99.90
19892;DHT22;10108;50.142;8.724;2024-03-23T04:08:21;10.50;99.90
19892;DHT22;10108;50.142;8.724;2024-03-23T04:10:47;10.60;99.90
19892;DHT22;10108;50.142;8.724;2024-03-23T04:13:14;10.60;99.90
19892;DHT22;10108;50.142;8.724;2024-03-23T04:15:40;10.60;99.90
19892;DHT22;10108;50.142;8.724;2024-03-23T04:18:07;10.60;99.90
19892;DHT22;10108;50.142;8.724;2024-03-23T04:20:34;10.60;99.90
19892;DHT22;10108;50.142;8.724;2024-03-23T04:23:00;10.60;99.90
19892;DHT22;10108;50.142;8.724;2024-03-23T04:25:27;10.60;99.90
19892;DHT22;10108;50.142;8.724;2024-03-23T04:27:53;10.60;99.90
19892;DHT22;10108;50.142;8.724;2024-03-23T04:30:19;10.50;99.90
19892;DHT22;10108;50.142;8.724;2024-03-23T04:32:47;10.40;99.90
19892;DHT22;10108;50.142;8.724;2024-03-23T04:35:14;10.30;99.90
19892;DHT22;10108;50.142;8.724;2024-03-23T04:37:40;10.10;99.90
19892;DHT22;10108;50.142;8.724;2024-03-23T04:40:07;9.90;99.90
19892;DHT22;10108;50.142;8.724;2024-03-23T04:42:33;9.70;99.90
19892;DHT22;10108;50.142;8.724;2024-03-23T04:45:00;9.60;99.90
19892;DHT22;10108;50.142;8.724;2024-03-23T04:47:27;9.40;99.90
19892;DHT22;10108;50.142;8.724;2024-03-23T04:49:55;9.30;99.90
19892;DHT22;10108;50.142;8.724;2024-03-23T04:52:21;9.20;99.90
19892;DHT22;10108;50.142;8.724;2024-03-23T04:54:48;9.10;99.90
19892;DHT22;10108;50.142;8.724;2024-03-23T04:57:14;9.00;99.90
19892;DHT22;10108;50.142;8.724;2024-03-23T04:59:47;8.90;99.90
19892;DHT22;10108;50.142;8.724;2024-03-23T05:02:14;8.80;99.90
19892;DHT22;10108;50.142;8.724;2024-03-23T05:04:43;8.70;99.90
19892;DHT22;10108;50.142;8.724;2024-03-23T05:07:09;8.50;99.90
19892;DHT22;10108;50.142;8.724;2024-03-23T05:09:36;8.50;99.90
19892;DHT22;10108;50.142;8.724;2024-03-23T05:12:02;8.50;99.90
19892;DHT22;10108;50.142;8.724;2024-03-23T05:14:29;8.40;99.90
19892;DHT22;10108;50.142;8.724;2024-03-23T05:16:55;8.40;99.90
19892;DHT22;10108;50.142;8.724;2024-03-23T05:19:22;8.30;99.90
19892;DHT22;10108;50.142;8.724;2024-03-23T05:21:48;8.20;99.90
19892;DHT22;10108;50.142;8.724;2024-03-23T05:24:15;8.30;99.90
19892;DHT22;10108;50.142;8.724;2024-03-23T05:26:41;8.30;99.90
19892;DHT22;10108;50.142;8.724;2024-03-23T05:29:07;8.30;99.90
19892;DHT22;10108;50.142;8.724;2024-03-23T05:31:37;8.30;99.90
19892;DHT22;10108;50.142;8.724;2024-03-23T05:34:03;8.20;99.90
19892;DHT22;10108;50.142;8.724;2024-03-23T05:36:30;8.10;99.90
19892;DHT22;10108;50.142;8.724;2024-03-23T05:38:56;8.10;99.90
19892;DHT22;10108;50.142;8.724;2024-03-23T05:41:23;8.20;99.90
19892;DHT22;10108;50.142;8.724;2024-03-23T05:43:50;8.30;99.90
19892;DHT22;10108;50.142;8.724;2024-03-23T05:46:16;8.30;99.90
19892;DHT22;10108;50.142;8.724;2024-03-23T05:48:44;8.40;99.90
19892;DHT22;10108;50.142;8.724;2024-03-23T05:51:10;8.40;99.90
19892;DHT22;10108;50.142;8.724;2024-03-23T05:53:38;8.50;99.90
19892;DHT22;10108;50.142;8.724;2024-03-23T05:56:05;8.60;99.90
19892;DHT22;10108;50.142;8.724;2024-03-23T05:58:32;8.70;99.90
19892;DHT22;10108;50.142;8.724;2024-03-23T06:01:00;8.80;99.90
19892;DHT22;10108;50.142;8.724;2024-03-23T06:03:28;8.90;99.90
19892;DHT22;10108;50.142;8.724;2024-03-23T06:05:56;8.90;99.90
19892;DHT22;10108;50.142;8.724;2024-03-23T06:08:23;9.00;99.90
19892;DHT22;10108;50.142;8.724;2024-03-23T06:10:50;9.00;99.90
19892;DHT22;10108;50.142;8.724;2024-03-23T06:13:17;9.00;99.90
19892;DHT22;10108;50.142;8.724;2024-03-23T06:15:44;9.00;99.90
19892;DHT22;10108;50.142;8.724;2024-03-23T06:18:11;9.00;99.90
19892;DHT22;10108;50.142;8.724;2024-03-23T06:20:38;9.00;99.90
19892;DHT22;10108;50.142;8.724;2024-03-23T06:23:05;9.10;99.90
19892;DHT22;10108;50.142;8.724;2024-03-23T06:25:31;9.10;99.90
19892;DHT22;10108;50.142;8.724;2024-03-23T06:27:57;9.20;99.90
19892;DHT22;10108;50.142;8.724;2024-03-23T06:30:24;9.10;99.90
19892;DHT22;10108;50.142;8.724;2024-03-23T06:32:52;9.10;99.90
19892;DHT22;10108;50.142;8.724;2024-03-23T06:35:19;9.10;99.90
19892;DHT22;10108;50.142;8.724;2024-03-23T06:37:46;9.10;99.90
19892;DHT22;10108;50.142;8.724;2024-03-23T06:40:12;9.00;99.90
19892;DHT22;10108;50.142;8.724;2024-03-23T06:42:38;9.00;99.90
19892;DHT22;10108;50.142;8.724;2024-03-23T06:45:05;9.00;99.90
19892;DHT22;10108;50.142;8.724;2024-03-23T06:47:32;9.00;99.90
19892;DHT22;10108;50.142;8.724;2024-03-23T06:49:59;9.00;99.90
19892;DHT22;10108;50.142;8.724;2024-03-23T06:52:28;9.00;99.90
19892;DHT22;10108;50.142;8.724;2024-03-23T06:54:55;9.00;99.90
19892;DHT22;10108;50.142;8.724;2024-03-23T06:57:21;9.00;99.90
19892;DHT22;10108;50.142;8.724;2024-03-23T06:59:48;8.90;99.90
19892;DHT22;10108;50.142;8.724;2024-03-23T07:02:14;8.90;99.90
19892;DHT22;10108;50.142;8.724;2024-03-23T07:04:41;8.90;99.90
19892;DHT22;10108;50.142;8.724;2024-03-23T07:07:08;8.80;99.90
19892;DHT22;10108;50.142;8.724;2024-03-23T07:09:35;8.80;99.90
19892;DHT22;10108;50.142;8.724;2024-03-23T07:12:04;8.80;99.90
19892;DHT22;10108;50.142;8.724;2024-03-23T07:14:31;8.80;99.90
19892;DHT22;10108;50.142;8.724;2024-03-23T07:16:57;8.80;99.90
19892;DHT22;10108;50.142;8.724;2024-03-23T07:19:24;8.90;99.90
19892;DHT22;10108;50.142;8.724;2024-03-23T07:21:50;9.00;99.90
19892;DHT22;10108;50.142;8.724;2024-03-23T07:24:17;9.00;99.90
19892;DHT22;10108;50.142;8.724;2024-03-23T07:26:43;9.10;99.90
19892;DHT22;10108;50.142;8.724;2024-03-23T07:29:10;9.10;99.90
19892;DHT22;10108;50.142;8.724;2024-03-23T07:31:36;9.10;99.90
19892;DHT22;10108;50.142;8.724;2024-03-23T07:34:03;9.10;99.90
19892;DHT22;10108;50.142;8.724;2024-03-23T07:36:29;9.10;99.90
19892;DHT22;10108;50.142;8.724;2024-03-23T07:38:55;9.20;99.90
19892;DHT22;10108;50.142;8.724;2024-03-23T07:41:21;9.20;99.90
19892;DHT22;10108;50.142;8.724;2024-03-23T07:43:48;9.20;99.90
19892;DHT22;10108;50.142;8.724;2024-03-23T07:46:16;9.20;99.90
19892;DHT22;10108;50.142;8.724;2024-03-23T07:48:42;9.10;99.90
19892;DHT22;10108;50.142;8.724;2024-03-23T07:51:10;9.10;99.90
19892;DHT22;10108;50.142;8.724;2024-03-23T07:53:37;9.20;99.90
19892;DHT22;10108;50.142;8.724;2024-03-23T07:56:07;9.20;99.90
19892;DHT22;10108;50.142;8.724;2024-03-23T07:58:34;9.20;99.90
19892;DHT22;10108;50.142;8.724;2024-03-23T08:01:11;9.20;99.90
19892;DHT22;10108;50.142;8.724;2024-03-23T08:03:39;9.30;99.90
19892;DHT22;10108;50.142;8.724;2024-03-23T08:06:15;9.40;99.90
19892;DHT22;10108;50.142;8.724;2024-03-23T08:08:46;9.40;99.90
19892;DHT22;10108;50.142;8.724;2024-03-23T08:11:13;9.40;99.90
19892;DHT22;10108;50.142;8.724;2024-03-23T08:13:41;9.40;99.90
19892;DHT22;10108;50.142;8.724;2024-03-23T08:16:08;9.50;99.90
19892;DHT22;10108;50.142;8.724;2024-03-23T08:18:40;9.50;99.90
19892;DHT22;10108;50.142;8.724;2024-03-23T08:21:07;9.50;99.90
19892;DHT22;10108;50.142;8.724;2024-03-23T08:23:34;9.50;99.90
19892;DHT22;10108;50.142;8.724;2024-03-23T08:26:08;9.40;99.90
19892;DHT22;10108;50.142;8.724;2024-03-23T08:28:35;9.30;99.90
19892;DHT22;10108;50.142;8.724;2024-03-23T08:31:06;9.30;99.90
19892;DHT22;10108;50.142;8.724;2024-03-23T08:33:33;9.20;99.90
19892;DHT22;10108;50.142;8.724;2024-03-23T08:38:28;9.30;99.90
19892;DHT22;10108;50.142;8.724;2024-03-23T08:43:24;9.40;99.90
19892;DHT22;10108;50.142;8.724;2024-03-23T08:45:51;9.40;99.90
19892;DHT22;10108;50.142;8.724;2024-03-23T08:48:19;9.40;99.90
19892;DHT22;10108;50.142;8.724;2024-03-23T08:50:47;9.50;99.90
19892;DHT22;10108;50.142;8.724;2024-03-23T08:53:14;9.60;99.90
19892;DHT22;10108;50.142;8.724;2024-03-23T08:55:40;9.50;99.90
19892;DHT22;10108;50.142;8.724;2024-03-23T08:58:07;9.50;99.90
19892;DHT22;10108;50.142;8.724;2024-03-23T09:00:34;9.60;99.90
19892;DHT22;10108;50.142;8.724;2024-03-23T09:03:01;9.60;99.90
19892;DHT22;10108;50.142;8.724;2024-03-23T09:05:28;9.60;99.90
19892;DHT22;10108;50.142;8.724;2024-03-23T09:07:56;9.60;99.90
19892;DHT22;10108;50.142;8.724;2024-03-23T09:10:23;9.50;99.90
19892;DHT22;10108;50.142;8.724;2024-03-23T09:12:49;9.50;99.90
19892;DHT22;10108;50.142;8.724;2024-03-23T09:15:15;9.60;99.90
19892;DHT22;10108;50.142;8.724;2024-03-23T09:17:42;9.60;99.90
19892;DHT22;10108;50.142;8.724;2024-03-23T09:20:08;9.70;99.90
19892;DHT22;10108;50.142;8.724;2024-03-23T09:22:35;9.80;99.90
19892;DHT22;10108;50.142;8.724;2024-03-23T09:25:01;9.90;99.90
19892;DHT22;10108;50.142;8.724;2024-03-23T09:27:27;10.00;99.90
19892;DHT22;10108;50.142;8.724;2024-03-23T09:29:54;10.10;99.90
19892;DHT22;10108;50.142;8.724;2024-03-23T09:32:20;10.20;99.90
19892;DHT22;10108;50.142;8.724;2024-03-23T09:34:46;10.30;99.90
19892;DHT22;10108;50.142;8.724;2024-03-23T09:37:12;10.30;99.90
19892;DHT22;10108;50.142;8.724;2024-03-23T09:39:39;10.20;99.90
19892;DHT22;10108;50.142;8.724;2024-03-23T09:42:06;10.10;99.90
19892;DHT22;10108;50.142;8.724;2024-03-23T09:44:32;10.10;99.90
19892;DHT22;10108;50.142;8.724;2024-03-23T09:46:59;10.10;99.90
19892;DHT22;10108;50.142;8.724;2024-03-23T09:49:25;10.00;99.90
19892;DHT22;10108;50.142;8.724;2024-03-23T09:51:52;10.00;99.90
19892;DHT22;10108;50.142;8.724;2024-03-23T09:54:21;9.90;99.90
19892;DHT22;10108;50.142;8.724;2024-03-23T09:56:50;10.00;99.90
19892;DHT22;10108;50.142;8.724;2024-03-23T09:59:16;10.00;99.90
19892;DHT22;10108;50.142;8.724;2024-03-23T10:01:43;9.90;99.90
19892;DHT22;10108;50.142;8.724;2024-03-23T10:04:09;10.00;99.90
19892;DHT22;10108;50.142;8.724;2024-03-23T10:06:35;10.00;99.90
19892;DHT22;10108;50.142;8.724;2024-03-23T10:09:16;10.00;99.90
19892;DHT22;10108;50.142;8.724;2024-03-23T10:11:44;10.00;99.90
19892;DHT22;10108;50.142;8.724;2024-03-23T10:14:29;10.00;99.90
19892;DHT22;10108;50.142;8.724;2024-03-23T10:17:11;10.10;99.90
19892;DHT22;10108;50.142;8.724;2024-03-23T10:19:41;10.20;99.90
19892;DHT22;10108;50.142;8.724;2024-03-23T10:22:09;10.30;99.70
19892;DHT22;10108;50.142;8.724;2024-03-23T10:24:36;10.50;99.90
19892;DHT22;10108;50.142;8.724;2024-03-23T10:27:02;10.60;99.90
19892;DHT22;10108;50.142;8.724;2024-03-23T10:29:28;10.70;99.90
19892;DHT22;10108;50.142;8.724;2024-03-23T10:32:10;10.70;99.90
19892;DHT22;10108;50.142;8.724;2024-03-23T10:34:37;10.70;99.90
19892;DHT22;10108;50.142;8.724;2024-03-23T10:37:06;10.70;99.60
19892;DHT22;10108;50.142;8.724;2024-03-23T10:39:36;10.70;99.90
19892;DHT22;10108;50.142;8.724;2024-03-23T10:42:09;10.70;98.90
19892;DHT22;10108;50.142;8.724;2024-03-23T10:44:38;10.80;99.80
19892;DHT22;10108;50.142;8.724;2024-03-23T10:47:05;10.90;99.90
19892;DHT22;10108;50.142;8.724;2024-03-23T10:49:33;11.10;99.90
19892;DHT22;10108;50.142;8.724;2024-03-23T10:52:01;11.20;99.90
19892;DHT22;10108;50.142;8.724;2024-03-23T10:54:28;11.20;99.70
19892;DHT22;10108;50.142;8.724;2024-03-23T10:57:14;11.20;99.20
19892;DHT22;10108;50.142;8.724;2024-03-23T10:59:44;11.20;98.20
19892;DHT22;10108;50.142;8.724;2024-03-23T11:02:20;11.20;99.20
19892;DHT22;10108;50.142;8.724;2024-03-23T11:04:46;11.20;99.90
19892;DHT22;10108;50.142;8.724;2024-03-23T11:09:51;10.50;99.90
19892;DHT22;10108;50.142;8.724;2024-03-23T11:14:51;9.20;99.90
19892;DHT22;10108;50.142;8.724;2024-03-23T11:17:22;8.70;99.90
19892;DHT22;10108;50.142;8.724;2024-03-23T11:20:03;8.50;99.90
19892;DHT22;10108;50.142;8.724;2024-03-23T11:22:45;8.30;99.90
19892;DHT22;10108;50.142;8.724;2024-03-23T11:25:23;8.30;99.90
19892;DHT22;10108;50.142;8.724;2024-03-23T11:27:51;8.40;99.90
19892;DHT22;10108;50.142;8.724;2024-03-23T11:30:25;8.40;99.90
19892;DHT22;10108;50.142;8.724;2024-03-23T11:32:56;8.50;99.90
19892;DHT22;10108;50.142;8.724;2024-03-23T11:35:33;8.70;99.90
19892;DHT22;10108;50.142;8.724;2024-03-23T11:38:09;8.80;99.90
19892;DHT22;10108;50.142;8.724;2024-03-23T11:40:40;8.80;99.90
19892;DHT22;10108;50.142;8.724;2024-03-23T11:43:08;8.90;99.90
19892;DHT22;10108;50.142;8.724;2024-03-23T11:45:38;8.90;99.90
19892;DHT22;10108;50.142;8.724;2024-03-23T11:48:10;8.90;99.90
19892;DHT22;10108;50.142;8.724;2024-03-23T11:50:42;9.00;99.90
19892;DHT22;10108;50.142;8.724;2024-03-23T11:53:21;9.20;99.90
19892;DHT22;10108;50.142;8.724;2024-03-23T11:58:17;9.40;99.90
19892;DHT22;10108;50.142;8.724;2024-03-23T12:00:51;9.40;99.90
19892;DHT22;10108;50.142;8.724;2024-03-23T12:03:21;9.40;99.90
19892;DHT22;10108;50.142;8.724;2024-03-23T12:05:52;9.50;99.90
19892;DHT22;10108;50.142;8.724;2024-03-23T12:08:42;9.50;99.90
19892;DHT22;10108;50.142;8.724;2024-03-23T12:11:12;9.50;99.90
19892;DHT22;10108;50.142;8.724;2024-03-23T12:13:40;9.60;99.90
19892;DHT22;10108;50.142;8.724;2024-03-23T12:16:17;9.60;99.90
19892;DHT22;10108;50.142;8.724;2024-03-23T12:18:50;9.70;99.90
19892;DHT22;10108;50.142;8.724;2024-03-23T12:21:33;9.70;99.90
19892;DHT22;10108;50.142;8.724;2024-03-23T12:24:12;9.80;99.90
19892;DHT22;10108;50.142;8.724;2024-03-23T12:26:39;9.80;99.90
19892;DHT22;10108;50.142;8.724;2024-03-23T12:29:15;9.90;99.90
19892;DHT22;10108;50.142;8.724;2024-03-23T12:31:43;10.00;99.90
19892;DHT22;10108;50.142;8.724;2024-03-23T12:34:10;10.00;99.90
19892;DHT22;10108;50.142;8.724;2024-03-23T12:36:49;10.10;99.90
19892;DHT22;10108;50.142;8.724;2024-03-23T12:39:15;10.10;99.90
19892;DHT22;10108;50.142;8.724;2024-03-23T12:41:49;10.10;99.90
19892;DHT22;10108;50.142;8.724;2024-03-23T12:44:40;10.20;99.90
19892;DHT22;10108;50.142;8.724;2024-03-23T12:47:14;10.30;99.90
19892;DHT22;10108;50.142;8.724;2024-03-23T12:49:40;10.40;99.90
19892;DHT22;10108;50.142;8.724;2024-03-23T12:52:10;10.40;99.90
19892;DHT22;10108;50.142;8.724;2024-03-23T12:54:46;10.60;99.90
19892;DHT22;10108;50.142;8.724;2024-03-23T12:57:41;10.80;99.90
19892;DHT22;10108;50.142;8.724;2024-03-23T13:00:11;11.00;99.90
19892;DHT22;10108;50.142;8.724;2024-03-23T13:02:38;11.00;99.90
19892;DHT22;10108;50.142;8.724;2024-03-23T13:05:10;11.00;99.90
19892;DHT22;10108;50.142;8.724;2024-03-23T13:07:36;11.20;99.90
19892;DHT22;10108;50.142;8.724;2024-03-23T13:10:05;11.20;99.90
19892;DHT22;10108;50.142;8.724;2024-03-23T13:12:32;11.30;99.90
19892;DHT22;10108;50.142;8.724;2024-03-23T13:15:05;11.30;99.90
19892;DHT22;10108;50.142;8.724;2024-03-23T13:17:31;11.20;99.90
19892;DHT22;10108;50.142;8.724;2024-03-23T13:19:58;11.10;99.90
19892;DHT22;10108;50.142;8.724;2024-03-23T13:22:30;11.00;99.90
19892;DHT22;10108;50.142;8.724;2024-03-23T13:25:01;10.90;99.90
19892;DHT22;10108;50.142;8.724;2024-03-23T13:27:27;10.30;99.90
19892;DHT22;10108;50.142;8.724;2024-03-23T13:29:54;9.50;99.90
19892;DHT22;10108;50.142;8.724;2024-03-23T13:32:24;8.90;99.90
19892;DHT22;10108;50.142;8.724;2024-03-23T13:35:08;8.50;99.90
19892;DHT22;10108;50.142;8.724;2024-03-23T13:37:46;8.20;99.90
19892;DHT22;10108;50.142;8.724;2024-03-23T13:40:33;7.90;99.90
19892;DHT22;10108;50.142;8.724;2024-03-23T13:43:40;7.70;99.90
19892;DHT22;10108;50.142;8.724;2024-03-23T13:49:26;7.60;99.90
19892;DHT22;10108;50.142;8.724;2024-03-23T13:52:13;7.60;99.90
19892;DHT22;10108;50.142;8.724;2024-03-23T13:54:57;7.70;99.90
19892;DHT22;10108;50.142;8.724;2024-03-23T13:57:34;7.90;99.90
19892;DHT22;10108;50.142;8.724;2024-03-23T14:00:00;8.20;99.90
19892;DHT22;10108;50.142;8.724;2024-03-23T14:03:02;8.30;99.90
19892;DHT22;10108;50.142;8.724;2024-03-23T14:12:54;8.70;99.90
19892;DHT22;10108;50.142;8.724;2024-03-23T14:15:43;8.80;99.90
19892;DHT22;10108;50.142;8.724;2024-03-23T14:21:38;9.20;99.90
19892;DHT22;10108;50.142;8.724;2024-03-23T14:24:37;9.40;99.90
19892;DHT22;10108;50.142;8.724;2024-03-23T14:30:55;9.70;99.90
19892;DHT22;10108;50.142;8.724;2024-03-23T14:33:36;9.90;99.90
19892;DHT22;10108;50.142;8.724;2024-03-23T14:40:23;9.90;99.90
19892;DHT22;10108;50.142;8.724;2024-03-23T14:43:55;9.90;99.90
19892;DHT22;10108;50.142;8.724;2024-03-23T14:46:43;9.90;99.90
19892;DHT22;10108;50.142;8.724;2024-03-23T14:49:50;10.00;99.90
19892;DHT22;10108;50.142;8.724;2024-03-23T14:53:36;10.00;99.90
19892;DHT22;10108;50.142;8.724;2024-03-23T14:56:43;10.10;99.90
19892;DHT22;10108;50.142;8.724;2024-03-23T14:59:10;10.20;99.90
19892;DHT22;10108;50.142;8.724;2024-03-23T15:01:36;10.30;99.90
19892;DHT22;10108;50.142;8.724;2024-03-23T15:04:02;10.30;99.90
19892;DHT22;10108;50.142;8.724;2024-03-23T15:06:30;10.40;99.90
19892;DHT22;10108;50.142;8.724;2024-03-23T15:08:56;10.50;99.90
19892;DHT22;10108;50.142;8.724;2024-03-23T15:11:22;10.50;99.90
19892;DHT22;10108;50.142;8.724;2024-03-23T15:13:50;10.50;99.90
19892;DHT22;10108;50.142;8.724;2024-03-23T15:16:17;10.50;99.90
19892;DHT22;10108;50.142;8.724;2024-03-23T15:18:46;10.50;99.90
19892;DHT22;10108;50.142;8.724;2024-03-23T15:21:12;10.50;99.90
19892;DHT22;10108;50.142;8.724;2024-03-23T15:23:40;10.40;99.90
19892;DHT22;10108;50.142;8.724;2024-03-23T15:26:09;10.40;99.90
19892;DHT22;10108;50.142;8.724;2024-03-23T15:28:37;10.40;99.90
19892;DHT22;10108;50.142;8.724;2024-03-23T15:31:08;10.40;99.90
19892;DHT22;10108;50.142;8.724;2024-03-23T15:33:38;10.40;99.90
19892;DHT22;10108;50.142;8.724;2024-03-23T15:36:06;10.30;99.90
19892;DHT22;10108;50.142;8.724;2024-03-23T15:38:33;10.30;99.90
19892;DHT22;10108;50.142;8.724;2024-03-23T15:40:59;10.30;99.90
19892;DHT22;10108;50.142;8.724;2024-03-23T15:43:26;10.20;99.90
19892;DHT22;10108;50.142;8.724;2024-03-23T15:46:00;10.10;99.90
19892;DHT22;10108;50.142;8.724;2024-03-23T15:48:27;10.00;99.90
19892;DHT22;10108;50.142;8.724;2024-03-23T15:50:55;9.90;99.90
19892;DHT22;10108;50.142;8.724;2024-03-23T15:53:23;9.60;99.90
19892;DHT22;10108;50.142;8.724;2024-03-23T15:56:00;8.70;99.90
19892;DHT22;10108;50.142;8.724;2024-03-23T15:58:27;7.60;99.90
19892;DHT22;10108;50.142;8.724;2024-03-23T16:01:04;6.80;99.90
19892;DHT22;10108;50.142;8.724;2024-03-23T16:03:31;6.50;99.90
19892;DHT22;10108;50.142;8.724;2024-03-23T16:06:06;6.50;99.90
19892;DHT22;10108;50.142;8.724;2024-03-23T16:08:35;6.70;99.90
19892;DHT22;10108;50.142;8.724;2024-03-23T16:11:03;6.80;99.90
19892;DHT22;10108;50.142;8.724;2024-03-23T16:13:30;6.90;99.90
19892;DHT22;10108;50.142;8.724;2024-03-23T16:16:04;7.10;99.90
19892;DHT22;10108;50.142;8.724;2024-03-23T16:18:36;7.20;99.90
19892;DHT22;10108;50.142;8.724;2024-03-23T16:21:04;7.20;99.90
19892;DHT22;10108;50.142;8.724;2024-03-23T16:23:35;7.20;99.90
19892;DHT22;10108;50.142;8.724;2024-03-23T16:26:06;7.20;99.90
19892;DHT22;10108;50.142;8.724;2024-03-23T16:28:36;7.20;99.90
19892;DHT22;10108;50.142;8.724;2024-03-23T16:31:08;7.20;99.90
19892;DHT22;10108;50.142;8.724;2024-03-23T16:33:36;7.30;99.90
19892;DHT22;10108;50.142;8.724;2024-03-23T16:36:05;7.30;99.90
19892;DHT22;10108;50.142;8.724;2024-03-23T16:38:35;7.40;99.90
19892;DHT22;10108;50.142;8.724;2024-03-23T16:41:11;7.40;99.90
19892;DHT22;10108;50.142;8.724;2024-03-23T16:43:39;7.40;99.90
19892;DHT22;10108;50.142;8.724;2024-03-23T16:46:11;7.40;99.90
19892;DHT22;10108;50.142;8.724;2024-03-23T16:48:38;7.40;99.90
19892;DHT22;10108;50.142;8.724;2024-03-23T16:51:06;7.50;99.90
19892;DHT22;10108;50.142;8.724;2024-03-23T16:53:32;7.60;99.90
19892;DHT22;10108;50.142;8.724;2024-03-23T16:56:00;7.60;99.90
19892;DHT22;10108;50.142;8.724;2024-03-23T16:58:30;7.60;99.90
19892;DHT22;10108;50.142;8.724;2024-03-23T17:01:04;7.70;99.90
19892;DHT22;10108;50.142;8.724;2024-03-23T17:03:37;7.80;99.90
19892;DHT22;10108;50.142;8.724;2024-03-23T17:06:05;7.80;99.90
19892;DHT22;10108;50.142;8.724;2024-03-23T17:08:32;7.90;99.90
19892;DHT22;10108;50.142;8.724;2024-03-23T17:11:00;8.00;99.90
19892;DHT22;10108;50.142;8.724;2024-03-23T17:13:30;8.00;99.90
19892;DHT22;10108;50.142;8.724;2024-03-23T17:15:59;8.00;99.90
19892;DHT22;10108;50.142;8.724;2024-03-23T17:18:26;8.00;99.90
19892;DHT22;10108;50.142;8.724;2024-03-23T17:20:53;7.90;99.90